GUL weather

Goulburn Airport
New South Wales, Australia

Public forecast

Using degrees Celsius for public forecast. Weather courtesy of forecast.io.

Closest aviation weather report (METAR) to Goulburn Airport

Closest report is Canberra International Airport, 39.6 nm (73.4 km) SW. Retrieved 2019/10/20 07:30 UTC (0 seconds ago):

YSCB 200730Z AUTO 35010KT 9999 // NCD 18/03 Q1021 RF000/0000

Closest aviation forecast (TAF) to Goulburn Airport

Closest forecast is Canberra International Airport, 39.6 nm (73.4 km) SW. Retrieved 2019/10/20 06:00 UTC (1 hour ago):

TAF YSCB 200512Z 2006/2106 30008KT CAVOK FM201000 13005KT CAVOK FM202200 31009KT CAVOK